createdAt,value
2023-02-18T00:01:47.023Z,11.00
2023-02-18T00:04:19.612Z,11.14
2023-02-18T00:06:52.078Z,11.21
2023-02-18T00:09:24.591Z,10.97
2023-02-18T00:11:57.068Z,11.25
2023-02-18T00:14:29.696Z,11.21
2023-02-18T00:17:02.264Z,11.15
2023-02-18T00:19:34.839Z,11.06
2023-02-18T00:22:07.406Z,11.21
2023-02-18T00:24:40.050Z,11.19
2023-02-18T00:27:12.632Z,11.08
2023-02-18T00:29:45.183Z,11.04
2023-02-18T00:32:17.726Z,11.03
2023-02-18T00:34:50.271Z,10.95
2023-02-18T00:37:22.836Z,11.14
2023-02-18T00:39:55.515Z,11.24
2023-02-18T00:42:29.227Z,10.97
2023-02-18T00:45:01.796Z,11.08
2023-02-18T00:47:34.275Z,10.97
2023-02-18T00:50:08.240Z,11.07
2023-02-18T00:52:40.764Z,10.98
2023-02-18T00:55:13.335Z,11.22
2023-02-18T00:57:45.924Z,10.87
2023-02-18T01:00:18.978Z,10.96
2023-02-18T01:02:54.012Z,10.94
2023-02-18T01:05:26.683Z,10.84
2023-02-18T01:07:59.519Z,10.77
2023-02-18T01:10:32.844Z,10.84
2023-02-18T01:13:05.555Z,10.93
2023-02-18T01:15:40.336Z,11.01
2023-02-18T01:18:13.981Z,10.91
2023-02-18T01:20:47.425Z,10.85
2023-02-18T01:23:20.472Z,10.69
2023-02-18T01:25:53.092Z,10.93
2023-02-18T01:28:26.709Z,10.68
2023-02-18T01:31:07.349Z,10.72
2023-02-18T01:33:41.222Z,10.59
2023-02-18T01:36:14.068Z,10.56
2023-02-18T01:38:46.623Z,10.52
2023-02-18T01:41:19.964Z,10.59
2023-02-18T01:44:21.301Z,10.41
2023-02-18T01:46:54.106Z,10.38
2023-02-18T01:49:36.266Z,10.34
2023-02-18T01:52:23.996Z,10.56
2023-02-18T01:54:57.888Z,10.32
2023-02-18T01:57:37.601Z,10.33
2023-02-18T02:00:16.074Z,10.36
2023-02-18T02:02:52.556Z,10.39
2023-02-18T02:05:30.487Z,10.26
2023-02-18T02:08:05.472Z,10.31
2023-02-18T02:11:07.556Z,10.23
2023-02-18T02:14:01.201Z,10.20
2023-02-18T02:17:07.200Z,10.23
2023-02-18T02:20:23.590Z,10.26
2023-02-18T02:23:27.220Z,10.26
2023-02-18T02:26:49.481Z,10.23
2023-02-18T02:29:58.606Z,10.33
2023-02-18T02:33:11.286Z,10.31
2023-02-18T02:36:07.061Z,10.40
2023-02-18T02:38:58.007Z,10.29
2023-02-18T02:42:08.665Z,10.34
2023-02-18T02:45:06.809Z,10.18
2023-02-18T02:48:01.060Z,10.16
2023-02-18T02:50:51.930Z,10.18
2023-02-18T02:53:30.537Z,10.20
2023-02-18T02:56:04.060Z,10.18
2023-02-18T02:58:36.594Z,10.20
2023-02-18T03:02:03.211Z,10.02
2023-02-18T03:05:08.353Z,10.35
2023-02-18T03:08:00.067Z,10.19
2023-02-18T03:10:39.498Z,10.18
2023-02-18T03:13:30.903Z,10.23
2023-02-18T03:16:24.744Z,10.14
2023-02-18T03:19:12.738Z,10.35
2023-02-18T03:21:55.940Z,10.11
2023-02-18T03:24:39.016Z,10.08
2023-02-18T03:27:38.510Z,10.29
2023-02-18T03:30:20.213Z,10.09
2023-02-18T03:33:03.112Z,9.98
2023-02-18T03:35:38.439Z,10.01
2023-02-18T03:38:27.148Z,10.16
2023-02-18T03:40:59.762Z,9.93
2023-02-18T03:43:32.575Z,10.05
2023-02-18T03:46:05.362Z,10.04
2023-02-18T03:48:37.924Z,10.01
2023-02-18T03:51:10.797Z,10.05
2023-02-18T03:53:43.460Z,9.96
2023-02-18T03:56:17.299Z,10.03
2023-02-18T03:58:49.908Z,9.89
2023-02-18T04:01:23.049Z,10.03
2023-02-18T04:03:56.093Z,9.84
2023-02-18T04:06:29.333Z,9.81
2023-02-18T04:09:02.703Z,10.04
2023-02-18T04:11:40.592Z,9.87
2023-02-18T04:14:14.824Z,9.89
2023-02-18T04:16:47.735Z,9.93
2023-02-18T04:19:20.598Z,9.93
2023-02-18T04:21:53.208Z,9.84
2023-02-18T04:24:25.942Z,9.82
2023-02-18T04:26:58.564Z,9.85
2023-02-18T04:29:31.403Z,9.88
2023-02-18T04:32:04.371Z,9.71
2023-02-18T04:34:36.977Z,9.85
2023-02-18T04:37:09.900Z,9.80
2023-02-18T04:39:42.702Z,9.81
2023-02-18T04:42:15.317Z,9.88
2023-02-18T04:44:47.835Z,9.85
2023-02-18T04:47:20.352Z,9.69
2023-02-18T04:49:53.001Z,9.86
2023-02-18T04:52:25.912Z,9.83
2023-02-18T04:54:58.689Z,9.67
2023-02-18T04:57:31.222Z,9.84
2023-02-18T05:00:07.223Z,9.78
2023-02-18T05:02:39.594Z,9.74
2023-02-18T05:05:13.998Z,9.82
2023-02-18T05:07:46.778Z,9.77
2023-02-18T05:10:19.639Z,9.85
2023-02-18T05:12:52.194Z,10.01
2023-02-18T05:15:25.387Z,9.82
2023-02-18T05:17:58.917Z,9.79
2023-02-18T05:20:32.580Z,9.71
2023-02-18T05:23:05.243Z,9.78
2023-02-18T05:25:37.727Z,9.76
2023-02-18T05:28:10.523Z,9.79
2023-02-18T05:30:43.578Z,9.74
2023-02-18T05:33:16.144Z,9.70
2023-02-18T05:35:49.228Z,9.85
2023-02-18T05:38:23.317Z,9.70
2023-02-18T05:40:56.254Z,9.77
2023-02-18T05:43:28.930Z,9.64
2023-02-18T05:46:01.562Z,9.63
2023-02-18T05:48:34.100Z,9.67
2023-02-18T05:51:06.920Z,9.70
2023-02-18T05:53:39.543Z,9.73
2023-02-18T05:56:12.056Z,9.63
2023-02-18T05:58:45.113Z,9.69
2023-02-18T06:01:17.801Z,9.69
2023-02-18T06:03:50.357Z,9.73
2023-02-18T06:06:23.327Z,9.62
2023-02-18T06:08:55.892Z,9.76
2023-02-18T06:11:28.545Z,9.64
2023-02-18T06:14:01.312Z,9.69
2023-02-18T06:16:34.700Z,9.60
2023-02-18T06:19:07.616Z,9.64
2023-02-18T06:21:40.284Z,9.55
2023-02-18T06:24:13.365Z,9.56
2023-02-18T06:26:45.994Z,9.61
2023-02-18T06:29:18.520Z,9.53
2023-02-18T06:31:51.889Z,9.59
2023-02-18T06:34:25.847Z,9.59
2023-02-18T06:36:59.916Z,9.51
2023-02-18T06:39:33.759Z,9.78
2023-02-18T06:42:06.366Z,9.34
2023-02-18T06:44:38.900Z,9.46
2023-02-18T06:47:11.442Z,9.61
2023-02-18T06:49:44.074Z,9.45
2023-02-18T06:52:17.834Z,9.68
2023-02-18T06:54:50.878Z,9.62
2023-02-18T06:57:23.359Z,9.60
2023-02-18T06:59:57.681Z,9.64
2023-02-18T07:02:30.266Z,9.63
2023-02-18T07:05:02.956Z,9.80
2023-02-18T07:07:36.112Z,9.66
2023-02-18T07:10:10.459Z,9.67
2023-02-18T07:12:43.051Z,9.89
2023-02-18T07:15:16.357Z,9.72
2023-02-18T07:17:48.921Z,9.51
2023-02-18T07:20:21.888Z,9.41
2023-02-18T07:22:54.815Z,9.36
2023-02-18T07:25:27.458Z,9.30
2023-02-18T07:27:59.998Z,9.26
2023-02-18T07:30:32.571Z,9.43
2023-02-18T07:33:06.691Z,9.26
2023-02-18T07:35:39.256Z,9.21
2023-02-18T07:38:12.044Z,9.33
2023-02-18T07:40:45.800Z,9.38
2023-02-18T07:43:18.857Z,9.26
2023-02-18T07:45:51.572Z,9.24
2023-02-18T07:48:24.493Z,9.33
2023-02-18T07:50:57.025Z,9.28
2023-02-18T07:53:29.559Z,9.26
2023-02-18T07:56:03.114Z,9.15
2023-02-18T07:58:38.388Z,9.27
2023-02-18T08:01:15.180Z,9.36
2023-02-18T08:03:48.089Z,9.31
2023-02-18T08:06:44.087Z,9.37
2023-02-18T08:09:17.741Z,9.36
2023-02-18T08:11:50.336Z,9.43
2023-02-18T08:14:22.898Z,9.39
2023-02-18T08:16:55.523Z,9.55
2023-02-18T08:19:28.331Z,9.47
2023-02-18T08:22:04.136Z,9.62
2023-02-18T08:24:36.716Z,9.46
2023-02-18T08:27:09.296Z,9.76
2023-02-18T08:29:41.885Z,9.78
2023-02-18T08:32:14.972Z,9.80
2023-02-18T08:34:47.659Z,9.96
2023-02-18T08:37:20.378Z,10.12
2023-02-18T08:39:53.047Z,10.04
2023-02-18T08:42:25.643Z,10.06
2023-02-18T08:44:58.132Z,10.02
2023-02-18T08:48:17.522Z,10.19
2023-02-18T08:50:26.182Z,10.18
2023-02-18T08:53:03.538Z,10.13
2023-02-18T08:55:40.946Z,10.25
2023-02-18T08:58:14.186Z,10.26
2023-02-18T09:00:46.934Z,10.20
2023-02-18T09:03:19.565Z,9.92
2023-02-18T09:05:52.188Z,10.15
2023-02-18T09:08:24.920Z,10.14
2023-02-18T09:11:00.918Z,10.09
2023-02-18T09:13:34.133Z,10.15
2023-02-18T09:16:12.189Z,10.10
2023-02-18T09:18:51.311Z,10.08
2023-02-18T09:21:24.594Z,9.94
2023-02-18T09:23:58.681Z,10.07
2023-02-18T09:26:31.514Z,10.01
2023-02-18T09:29:04.181Z,9.93
2023-02-18T09:31:37.978Z,9.93
2023-02-18T09:34:10.668Z,9.95
2023-02-18T09:36:43.481Z,9.76
2023-02-18T09:39:18.091Z,10.02
2023-02-18T09:41:57.868Z,9.81
2023-02-18T09:44:39.324Z,9.74
2023-02-18T09:47:37.104Z,9.90
2023-02-18T09:50:33.824Z,9.91
2023-02-18T09:53:06.416Z,9.96
2023-02-18T09:55:41.274Z,9.85
2023-02-18T09:58:23.730Z,9.87
2023-02-18T10:01:16.006Z,10.14
2023-02-18T10:03:49.039Z,9.79
2023-02-18T10:06:31.443Z,9.89
2023-02-18T10:09:21.960Z,9.98
2023-02-18T10:12:11.222Z,10.14
2023-02-18T10:14:51.774Z,10.14
2023-02-18T10:17:28.362Z,10.05
2023-02-18T10:20:06.224Z,9.97
2023-02-18T10:22:41.040Z,10.20
2023-02-18T10:25:22.471Z,10.27
2023-02-18T10:27:57.225Z,10.33
2023-02-18T10:30:57.127Z,10.00
2023-02-18T10:33:47.567Z,10.43
2023-02-18T10:36:40.988Z,10.29
2023-02-18T10:39:54.083Z,10.45
2023-02-18T10:42:39.200Z,10.35
2023-02-18T10:45:45.693Z,10.22
2023-02-18T10:49:16.175Z,10.47
2023-02-18T10:51:56.399Z,10.49
2023-02-18T10:54:58.100Z,10.37
2023-02-18T10:57:32.260Z,10.55
2023-02-18T11:00:40.441Z,10.72
2023-02-18T11:03:19.608Z,10.58
2023-02-18T11:05:56.628Z,10.54
2023-02-18T11:08:43.829Z,10.55
2023-02-18T11:11:25.810Z,10.40
2023-02-18T11:14:05.319Z,10.60
2023-02-18T11:16:45.260Z,10.64
2023-02-18T11:19:39.686Z,10.37
2023-02-18T11:22:18.187Z,10.64
2023-02-18T11:24:57.478Z,10.64
2023-02-18T11:27:48.781Z,10.71
2023-02-18T11:30:39.943Z,10.81
2023-02-18T11:33:44.639Z,10.50
2023-02-18T11:36:31.681Z,10.66
2023-02-18T11:39:27.308Z,10.83
2023-02-18T11:42:05.741Z,10.74
2023-02-18T11:44:53.369Z,10.62
2023-02-18T11:47:35.067Z,10.84
2023-02-18T11:50:10.534Z,10.83
2023-02-18T11:52:49.862Z,10.83
2023-02-18T11:55:30.939Z,11.04
2023-02-18T11:58:07.007Z,11.04
2023-02-18T12:00:49.322Z,10.87
2023-02-18T12:03:43.800Z,10.83
2023-02-18T12:06:33.485Z,10.72
2023-02-18T12:09:35.130Z,11.05
2023-02-18T12:12:20.042Z,11.23
2023-02-18T12:14:56.423Z,11.30
2023-02-18T12:17:55.451Z,11.12
2023-02-18T12:20:49.639Z,11.16
2023-02-18T12:23:34.624Z,11.42
2023-02-18T12:26:40.182Z,11.78
2023-02-18T12:29:49.859Z,11.81
2023-02-18T12:32:52.866Z,11.87
2023-02-18T12:35:34.352Z,11.45
2023-02-18T12:38:33.154Z,11.61
2023-02-18T12:41:26.602Z,11.52
2023-02-18T12:44:19.269Z,11.75
2023-02-18T12:47:37.506Z,11.39
2023-02-18T12:50:29.193Z,11.44
2023-02-18T12:53:55.282Z,11.58
2023-02-18T12:57:01.664Z,11.33
2023-02-18T12:59:43.771Z,11.68
2023-02-18T13:02:40.763Z,11.52
2023-02-18T13:05:43.084Z,11.74
2023-02-18T13:08:29.050Z,11.86
2023-02-18T13:11:50.828Z,12.11
2023-02-18T13:14:33.467Z,11.77
2023-02-18T13:17:11.323Z,11.84
2023-02-18T13:19:58.797Z,11.87
2023-02-18T13:22:33.657Z,11.75
2023-02-18T13:25:14.320Z,11.90
2023-02-18T13:28:19.115Z,11.74
2023-02-18T13:31:25.624Z,11.84
2023-02-18T13:34:32.818Z,11.87
2023-02-18T13:37:27.843Z,12.07
2023-02-18T13:40:02.273Z,12.11
2023-02-18T13:42:37.748Z,12.20
2023-02-18T13:45:33.523Z,12.16
2023-02-18T13:48:26.249Z,12.62
2023-02-18T13:51:07.045Z,12.62
2023-02-18T13:53:44.936Z,12.64
2023-02-18T13:56:17.429Z,12.17
2023-02-18T13:58:55.788Z,12.38
2023-02-18T14:01:47.278Z,12.42
2023-02-18T14:04:42.140Z,12.63
2023-02-18T14:07:45.295Z,12.44
2023-02-18T14:10:18.317Z,12.35
2023-02-18T14:12:56.660Z,12.51
2023-02-18T14:15:29.305Z,12.62
2023-02-18T14:18:14.235Z,12.76
2023-02-18T14:20:51.988Z,12.86
2023-02-18T14:23:24.441Z,12.44
2023-02-18T14:26:19.195Z,12.59
2023-02-18T14:29:02.729Z,12.63
2023-02-18T14:31:52.464Z,12.48
2023-02-18T14:34:43.223Z,12.28
2023-02-18T14:37:47.403Z,12.53
2023-02-18T14:41:04.149Z,12.44
2023-02-18T14:44:07.847Z,12.35
2023-02-18T14:47:02.652Z,12.24
2023-02-18T14:49:48.049Z,12.40
2023-02-18T14:52:34.349Z,12.28
2023-02-18T14:55:19.270Z,12.34
2023-02-18T14:58:02.788Z,12.28
2023-02-18T15:00:42.244Z,11.99
2023-02-18T15:03:20.245Z,12.17
2023-02-18T15:05:52.961Z,12.23
2023-02-18T15:08:26.536Z,12.18
2023-02-18T15:11:06.034Z,12.16
2023-02-18T15:13:45.225Z,12.25
2023-02-18T15:16:31.783Z,11.99
2023-02-18T15:19:13.634Z,12.07
2023-02-18T15:21:50.010Z,12.25
2023-02-18T15:24:33.344Z,12.20
2023-02-18T15:27:17.031Z,12.43
2023-02-18T15:29:53.387Z,12.14
2023-02-18T15:32:29.286Z,12.34
2023-02-18T15:35:15.798Z,12.37
2023-02-18T15:37:54.687Z,12.40
2023-02-18T15:40:34.563Z,12.29
2023-02-18T15:43:09.030Z,12.24
2023-02-18T15:45:46.903Z,12.48
2023-02-18T15:48:39.440Z,12.16
2023-02-18T15:51:18.125Z,12.27
2023-02-18T15:53:58.595Z,12.52
2023-02-18T15:56:37.876Z,12.32
2023-02-18T15:59:28.067Z,12.42
2023-02-18T16:02:23.877Z,12.22
2023-02-18T16:05:04.757Z,12.05
2023-02-18T16:07:52.494Z,12.04
2023-02-18T16:10:36.842Z,11.77
2023-02-18T16:13:16.944Z,11.79
2023-02-18T16:15:52.128Z,11.72
2023-02-18T16:18:36.660Z,11.87
2023-02-18T16:21:18.083Z,11.62
2023-02-18T16:24:03.104Z,11.45
2023-02-18T16:26:38.552Z,11.54
2023-02-18T16:29:25.549Z,11.36
2023-02-18T16:31:58.243Z,11.36
2023-02-18T16:34:30.945Z,11.31
2023-02-18T16:37:22.467Z,11.27
2023-02-18T16:39:55.334Z,11.23
2023-02-18T16:42:27.918Z,11.22
2023-02-18T16:45:00.462Z,11.34
2023-02-18T16:47:34.664Z,11.25
2023-02-18T16:50:19.284Z,11.30
2023-02-18T16:52:51.835Z,10.98
2023-02-18T16:55:28.882Z,11.04
2023-02-18T16:58:01.440Z,11.01
2023-02-18T17:00:34.414Z,11.01
2023-02-18T17:03:07.137Z,10.73
2023-02-18T17:05:41.106Z,10.72
2023-02-18T17:08:20.359Z,10.67
2023-02-18T17:10:57.785Z,10.73
2023-02-18T17:13:31.523Z,10.81
2023-02-18T17:16:04.391Z,10.68
2023-02-18T17:18:37.125Z,10.53
2023-02-18T17:21:17.939Z,10.56
2023-02-18T17:23:51.503Z,10.61
2023-02-18T17:26:29.180Z,10.51
2023-02-18T17:29:01.876Z,10.77
2023-02-18T17:31:39.487Z,10.73
2023-02-18T17:34:24.731Z,10.54
2023-02-18T17:36:57.283Z,10.48
2023-02-18T17:39:31.348Z,10.39
2023-02-18T17:42:04.136Z,10.43
2023-02-18T17:44:37.734Z,10.51
2023-02-18T17:47:10.298Z,10.24
2023-02-18T17:49:42.876Z,10.47
2023-02-18T17:52:33.665Z,10.37
2023-02-18T17:55:18.457Z,10.36
2023-02-18T17:57:53.044Z,10.41
2023-02-18T18:00:36.433Z,10.37
2023-02-18T18:03:12.856Z,10.47
2023-02-18T18:05:49.251Z,10.58
2023-02-18T18:08:21.986Z,10.49
2023-02-18T18:10:59.198Z,10.47
2023-02-18T18:13:32.514Z,10.61
2023-02-18T18:16:05.425Z,10.53
2023-02-18T18:18:37.976Z,10.52
2023-02-18T18:21:30.985Z,10.54
2023-02-18T18:24:04.111Z,10.49
2023-02-18T18:26:36.655Z,10.54
2023-02-18T18:29:09.175Z,10.54
2023-02-18T18:31:41.873Z,10.46
2023-02-18T18:34:19.237Z,10.60
2023-02-18T18:36:51.775Z,10.55
2023-02-18T18:39:24.499Z,10.29
2023-02-18T18:41:57.621Z,10.46
2023-02-18T18:44:30.182Z,10.50
2023-02-18T18:47:02.698Z,10.53
2023-02-18T18:49:35.265Z,10.52
2023-02-18T18:52:16.064Z,10.54
2023-02-18T18:54:48.594Z,10.59
2023-02-18T18:57:21.085Z,10.60
2023-02-18T18:59:53.743Z,10.58
2023-02-18T19:02:26.351Z,10.60
2023-02-18T19:04:58.949Z,10.63
2023-02-18T19:07:31.536Z,10.65
2023-02-18T19:10:04.304Z,10.63
2023-02-18T19:12:36.937Z,10.64
2023-02-18T19:15:14.572Z,10.76
2023-02-18T19:17:51.009Z,10.74
2023-02-18T19:20:31.348Z,10.74
2023-02-18T19:23:04.640Z,10.61
2023-02-18T19:25:38.726Z,10.64
2023-02-18T19:28:14.497Z,10.69
2023-02-18T19:30:47.353Z,10.59
2023-02-18T19:33:19.910Z,10.72
2023-02-18T19:35:52.544Z,10.74
2023-02-18T19:38:25.123Z,10.67
2023-02-18T19:40:57.623Z,10.64
2023-02-18T19:43:30.184Z,10.69
2023-02-18T19:46:13.444Z,10.67
2023-02-18T19:48:52.419Z,10.68
2023-02-18T19:51:26.293Z,10.62
2023-02-18T19:53:58.857Z,10.57
2023-02-18T19:56:31.394Z,10.72
2023-02-18T19:59:03.968Z,10.57
2023-02-18T20:01:36.586Z,10.69
2023-02-18T20:04:10.111Z,10.72
2023-02-18T20:06:42.765Z,10.85
2023-02-18T20:09:15.716Z,10.73
2023-02-18T20:11:48.430Z,10.66
2023-02-18T20:14:23.764Z,10.82
2023-02-18T20:16:57.947Z,10.78
2023-02-18T20:19:31.948Z,10.48
2023-02-18T20:22:06.806Z,10.60
2023-02-18T20:24:40.203Z,10.51
2023-02-18T20:27:12.815Z,10.67
2023-02-18T20:29:45.357Z,10.54
2023-02-18T20:32:19.107Z,10.58
2023-02-18T20:34:51.683Z,10.68
2023-02-18T20:37:24.323Z,10.68
2023-02-18T20:39:56.865Z,10.55
2023-02-18T20:42:29.382Z,10.76
2023-02-18T20:45:01.995Z,10.67
2023-02-18T20:47:34.584Z,10.58
2023-02-18T20:50:07.548Z,10.75
2023-02-18T20:52:40.524Z,10.67
2023-02-18T20:55:13.244Z,10.61
2023-02-18T20:57:45.817Z,10.74
2023-02-18T21:00:18.514Z,10.47
2023-02-18T21:02:51.232Z,10.75
2023-02-18T21:05:23.792Z,10.65
2023-02-18T21:07:56.315Z,10.67
2023-02-18T21:10:28.917Z,10.62
2023-02-18T21:13:01.511Z,10.82
2023-02-18T21:15:37.879Z,10.74
2023-02-18T21:18:10.448Z,10.62
2023-02-18T21:20:44.287Z,10.67
2023-02-18T21:23:16.823Z,10.54
2023-02-18T21:25:49.416Z,10.62
2023-02-18T21:28:21.926Z,10.72
2023-02-18T21:30:54.438Z,10.76
2023-02-18T21:33:27.764Z,10.58
2023-02-18T21:36:03.128Z,10.61
2023-02-18T21:38:35.725Z,10.71
2023-02-18T21:41:08.890Z,10.61
2023-02-18T21:43:45.509Z,10.43
2023-02-18T21:46:28.318Z,10.55
2023-02-18T21:49:09.260Z,10.61
2023-02-18T21:51:58.204Z,10.54
2023-02-18T21:54:33.650Z,10.62
2023-02-18T21:57:10.371Z,10.50
2023-02-18T21:59:45.228Z,10.49
2023-02-18T22:02:23.103Z,10.50
2023-02-18T22:04:55.885Z,10.54
2023-02-18T22:07:29.941Z,10.52
2023-02-18T22:10:02.631Z,10.55
2023-02-18T22:12:35.219Z,10.49
2023-02-18T22:15:09.692Z,10.57
2023-02-18T22:17:42.275Z,10.45
2023-02-18T22:20:14.942Z,10.61
2023-02-18T22:22:47.455Z,10.86
2023-02-18T22:25:19.955Z,10.76
2023-02-18T22:27:52.499Z,10.60
2023-02-18T22:30:25.047Z,10.43
2023-02-18T22:32:57.586Z,10.72
2023-02-18T22:35:30.108Z,10.73
2023-02-18T22:38:03.437Z,10.63
2023-02-18T22:40:35.999Z,10.55
2023-02-18T22:43:08.618Z,10.56
2023-02-18T22:45:41.242Z,10.70
2023-02-18T22:48:13.824Z,10.56
2023-02-18T22:50:46.377Z,10.71
2023-02-18T22:53:18.879Z,10.76
2023-02-18T22:55:51.433Z,10.56
2023-02-18T22:58:24.047Z,10.59
2023-02-18T23:00:56.728Z,10.71
2023-02-18T23:03:29.597Z,10.68
2023-02-18T23:06:06.351Z,10.61
2023-02-18T23:08:38.831Z,10.43
2023-02-18T23:11:15.470Z,10.53
2023-02-18T23:14:07.919Z,10.73
2023-02-18T23:17:00.206Z,10.62
2023-02-18T23:19:34.321Z,10.56
2023-02-18T23:22:09.886Z,10.52
2023-02-18T23:24:45.658Z,10.56
2023-02-18T23:27:18.548Z,10.59
2023-02-18T23:29:52.256Z,10.58
2023-02-18T23:32:27.682Z,10.57
2023-02-18T23:35:00.219Z,10.53
2023-02-18T23:37:51.283Z,10.61
2023-02-18T23:40:23.907Z,10.55
2023-02-18T23:42:56.465Z,10.49
2023-02-18T23:45:29.069Z,10.51
2023-02-18T23:48:01.682Z,10.37
2023-02-18T23:50:34.273Z,10.52
2023-02-18T23:53:06.815Z,10.68
2023-02-18T23:55:39.419Z,10.48
2023-02-18T23:58:11.923Z,10.51
